SAS4TR EKCH-LOWI
Flight info
| Callsign | SAS4TR |
|---|---|
| Flight time | 1h 32m |
| Altitude | 39000 |
| Route | SALLO M44 KOGIM DCT UNRIG DCT MAREM DCT APRAQ DCT BUDEX/N0446F380 DCT PINQI DCT BUBSE DCT MORED DCT ERANI DCT NANIT NANIT2A |
| Aircraft | A20N/M-SDE2E3FGHIRWXY/LB1 |
Departure
| Time | 2026-05-06 21:25 |
|---|---|
| Airport | Copenhagen Kastrup Airport (EKCH) |
Arrival
| Time | 2026-05-06 22:58 |
|---|---|
| Airport | Innsbruck Airport (LOWI) |
| Time | Latitude | Longitude | Altitude | Speed | Heading |
|---|---|---|---|---|---|
| 2026-05-06 20:54 | 55.62675 | 12.64239 | 26 ft | 0 kts | 35° |
| 2026-05-06 21:12 | 55.62659 | 12.64220 | 26 ft | 4 kts | 35° |
| 2026-05-06 21:13 | 55.62637 | 12.64193 | 31 ft | 4 kts | 35° |
| 2026-05-06 21:13 | 55.62618 | 12.64170 | 29 ft | 4 kts | 49° |
| 2026-05-06 21:13 | 55.62613 | 12.64142 | 28 ft | 4 kts | 132° |
| 2026-05-06 21:13 | 55.62632 | 12.64109 | 26 ft | 4 kts | 128° |
| 2026-05-06 21:14 | 55.62636 | 12.64101 | 27 ft | 1 kts | 124° |
| 2026-05-06 21:19 | 55.62636 | 12.64102 | 27 ft | 1 kts | 124° |
| 2026-05-06 21:20 | 55.62629 | 12.64119 | 26 ft | 3 kts | 124° |
| 2026-05-06 21:20 | 55.62612 | 12.64162 | 27 ft | 8 kts | 125° |
| 2026-05-06 21:20 | 55.62563 | 12.64292 | 26 ft | 17 kts | 120° |
| 2026-05-06 21:20 | 55.62484 | 12.64516 | 26 ft | 26 kts | 122° |
| 2026-05-06 21:21 | 55.62379 | 12.64789 | 27 ft | 27 kts | 123° |
| 2026-05-06 21:21 | 55.62284 | 12.65064 | 27 ft | 26 kts | 107° |
| 2026-05-06 21:21 | 55.62295 | 12.65369 | 23 ft | 25 kts | 89° |
| 2026-05-06 21:21 | 55.62300 | 12.65695 | 18 ft | 28 kts | 88° |
| 2026-05-06 21:22 | 55.62331 | 12.66019 | 16 ft | 26 kts | 51° |
| 2026-05-06 21:22 | 55.62463 | 12.66224 | 19 ft | 25 kts | 41° |
| 2026-05-06 21:22 | 55.62504 | 12.66287 | 19 ft | 0 kts | 41° |
| 2026-05-06 21:23 | 55.62505 | 12.66289 | 19 ft | 2 kts | 41° |
| 2026-05-06 21:23 | 55.62563 | 12.66379 | 23 ft | 20 kts | 41° |
| 2026-05-06 21:23 | 55.62619 | 12.66576 | 16 ft | 13 kts | 120° |
| 2026-05-06 21:23 | 55.62579 | 12.66662 | 16 ft | 9 kts | 134° |
| 2026-05-06 21:24 | 55.62563 | 12.66690 | 17 ft | 0 kts | 138° |
| 2026-05-06 21:24 | 55.62539 | 12.66714 | 18 ft | 11 kts | 161° |
| 2026-05-06 21:24 | 55.62464 | 12.66644 | 22 ft | 23 kts | 216° |
| 2026-05-06 21:25 | 55.62144 | 12.66149 | 19 ft | 99 kts | 222° |
| 2026-05-06 21:25 | 55.61450 | 12.65071 | 71 ft | 156 kts | 219° |
| 2026-05-06 21:25 | 55.60663 | 12.63770 | 813 ft | 157 kts | 222° |
| 2026-05-06 21:25 | 55.59882 | 12.62233 | 1430 ft | 176 kts | 226° |
| 2026-05-06 21:26 | 55.59043 | 12.60584 | 2250 ft | 184 kts | 223° |
| 2026-05-06 21:26 | 55.58134 | 12.58955 | 3082 ft | 188 kts | 221° |
| 2026-05-06 21:26 | 55.57187 | 12.57371 | 3902 ft | 191 kts | 220° |
| 2026-05-06 21:26 | 55.56073 | 12.56038 | 4612 ft | 199 kts | 204° |
| 2026-05-06 21:27 | 55.54749 | 12.55075 | 5209 ft | 210 kts | 198° |
| 2026-05-06 21:27 | 55.53366 | 12.54217 | 6004 ft | 210 kts | 198° |
| 2026-05-06 21:27 | 55.51998 | 12.53385 | 6892 ft | 205 kts | 198° |
| 2026-05-06 21:27 | 55.50666 | 12.52573 | 7766 ft | 199 kts | 198° |
| 2026-05-06 21:28 | 55.49339 | 12.51760 | 8491 ft | 211 kts | 199° |
| 2026-05-06 21:28 | 55.47873 | 12.50860 | 8899 ft | 236 kts | 199° |
| 2026-05-06 21:28 | 55.46222 | 12.49843 | 9198 ft | 267 kts | 199° |
| 2026-05-06 21:28 | 55.44342 | 12.49239 | 9935 ft | 282 kts | 175° |
| 2026-05-06 21:29 | 55.42460 | 12.50389 | 10598 ft | 301 kts | 146° |
| 2026-05-06 21:29 | 55.41021 | 12.53246 | 10992 ft | 329 kts | 117° |
| 2026-05-06 21:29 | 55.40382 | 12.57197 | 11714 ft | 343 kts | 101° |
| 2026-05-06 21:29 | 55.39629 | 12.61207 | 12645 ft | 348 kts | 121° |
| 2026-05-06 21:30 | 55.38063 | 12.64459 | 13652 ft | 351 kts | 142° |
| 2026-05-06 21:30 | 55.36054 | 12.66922 | 14541 ft | 355 kts | 151° |
| 2026-05-06 21:30 | 55.33867 | 12.68989 | 15447 ft | 358 kts | 156° |
| 2026-05-06 21:30 | 55.31604 | 12.70852 | 16338 ft | 362 kts | 158° |
| 2026-05-06 21:31 | 55.29286 | 12.72676 | 17227 ft | 366 kts | 159° |
| 2026-05-06 21:31 | 55.26955 | 12.74521 | 18096 ft | 370 kts | 158° |
| 2026-05-06 21:31 | 55.24603 | 12.76429 | 18834 ft | 375 kts | 158° |
| 2026-05-06 21:31 | 55.22219 | 12.78412 | 19473 ft | 382 kts | 158° |
| 2026-05-06 21:32 | 55.19841 | 12.80425 | 20159 ft | 387 kts | 157° |
| 2026-05-06 21:32 | 55.14954 | 12.84619 | 21629 ft | 395 kts | 157° |
| 2026-05-06 21:32 | 55.12478 | 12.86748 | 22345 ft | 398 kts | 157° |
| 2026-05-06 21:33 | 55.09976 | 12.88896 | 23029 ft | 402 kts | 156° |
| 2026-05-06 21:33 | 55.07451 | 12.91058 | 23641 ft | 407 kts | 156° |
| 2026-05-06 21:33 | 55.05760 | 12.92502 | 24001 ft | 409 kts | 156° |
| 2026-05-06 21:33 | 55.03196 | 12.94690 | 24583 ft | 411 kts | 156° |
| 2026-05-06 21:34 | 55.00613 | 12.96890 | 25178 ft | 413 kts | 156° |
| 2026-05-06 21:34 | 54.98025 | 12.99090 | 25737 ft | 415 kts | 156° |
| 2026-05-06 21:34 | 54.95424 | 13.01296 | 26295 ft | 417 kts | 156° |
| 2026-05-06 21:34 | 54.92812 | 13.03509 | 26847 ft | 418 kts | 156° |
| 2026-05-06 21:35 | 54.90187 | 13.05729 | 27360 ft | 420 kts | 156° |
| 2026-05-06 21:35 | 54.87547 | 13.07959 | 27878 ft | 422 kts | 156° |
| 2026-05-06 21:35 | 54.84897 | 13.10194 | 28370 ft | 425 kts | 156° |
| 2026-05-06 21:35 | 54.82233 | 13.12437 | 28849 ft | 426 kts | 156° |
| 2026-05-06 21:36 | 54.79567 | 13.14679 | 29468 ft | 425 kts | 156° |
| 2026-05-06 21:36 | 54.76904 | 13.16916 | 29964 ft | 427 kts | 156° |
| 2026-05-06 21:36 | 54.74222 | 13.19164 | 30315 ft | 430 kts | 156° |
| 2026-05-06 21:36 | 54.71524 | 13.21422 | 30715 ft | 431 kts | 156° |
| 2026-05-06 21:37 | 54.68827 | 13.23678 | 31162 ft | 430 kts | 156° |
| 2026-05-06 21:37 | 54.66167 | 13.25898 | 31594 ft | 431 kts | 157° |
| 2026-05-06 21:37 | 54.63467 | 13.28149 | 32030 ft | 431 kts | 157° |
| 2026-05-06 21:37 | 54.60770 | 13.30394 | 32439 ft | 431 kts | 157° |
| 2026-05-06 21:38 | 54.58067 | 13.32640 | 32859 ft | 431 kts | 158° |
| 2026-05-06 21:38 | 54.55360 | 13.34887 | 33267 ft | 431 kts | 158° |
| 2026-05-06 21:38 | 54.52657 | 13.37127 | 33671 ft | 431 kts | 158° |
| 2026-05-06 21:38 | 54.49958 | 13.39360 | 34035 ft | 430 kts | 158° |
| 2026-05-06 21:39 | 54.47264 | 13.41586 | 34367 ft | 430 kts | 158° |
| 2026-05-06 21:39 | 54.44558 | 13.43818 | 34657 ft | 431 kts | 158° |
| 2026-05-06 21:39 | 54.41852 | 13.46046 | 34943 ft | 432 kts | 158° |
| 2026-05-06 21:39 | 54.39142 | 13.48276 | 35266 ft | 431 kts | 159° |
| 2026-05-06 21:40 | 54.36443 | 13.50494 | 35622 ft | 430 kts | 159° |
| 2026-05-06 21:40 | 54.33700 | 13.52488 | 35880 ft | 427 kts | 165° |
| 2026-05-06 21:40 | 54.30878 | 13.53806 | 36111 ft | 424 kts | 173° |
| 2026-05-06 21:40 | 54.27963 | 13.54392 | 36353 ft | 421 kts | 180° |
| 2026-05-06 21:41 | 54.25034 | 13.54645 | 36606 ft | 421 kts | 182° |
| 2026-05-06 21:41 | 54.22107 | 13.54753 | 36832 ft | 421 kts | 183° |
| 2026-05-06 21:41 | 54.19176 | 13.54791 | 37090 ft | 421 kts | 183° |
| 2026-05-06 21:41 | 54.16247 | 13.54808 | 37359 ft | 422 kts | 184° |
| 2026-05-06 21:42 | 54.13307 | 13.54827 | 37609 ft | 422 kts | 183° |
| 2026-05-06 21:42 | 54.10366 | 13.54859 | 37861 ft | 422 kts | 183° |
| 2026-05-06 21:42 | 54.07421 | 13.54903 | 38093 ft | 423 kts | 183° |
| 2026-05-06 21:42 | 54.04474 | 13.54957 | 38335 ft | 423 kts | 183° |
| 2026-05-06 21:43 | 54.01568 | 13.55016 | 38566 ft | 423 kts | 183° |
| 2026-05-06 21:43 | 53.98621 | 13.55079 | 38739 ft | 424 kts | 183° |
| 2026-05-06 21:43 | 53.95672 | 13.55143 | 38885 ft | 424 kts | 183° |
| 2026-05-06 21:43 | 53.92716 | 13.55206 | 38920 ft | 424 kts | 183° |
| 2026-05-06 21:44 | 53.86826 | 13.55332 | 38917 ft | 422 kts | 183° |
| 2026-05-06 21:44 | 53.80951 | 13.55455 | 38916 ft | 422 kts | 183° |
| 2026-05-06 21:45 | 53.75074 | 13.55576 | 38911 ft | 422 kts | 183° |
| 2026-05-06 21:45 | 53.69199 | 13.55697 | 38909 ft | 422 kts | 183° |
| 2026-05-06 21:46 | 53.63345 | 13.55818 | 38907 ft | 421 kts | 183° |
| 2026-05-06 21:46 | 53.57488 | 13.55938 | 38906 ft | 421 kts | 183° |
| 2026-05-06 21:47 | 53.51619 | 13.56059 | 38887 ft | 421 kts | 183° |
| 2026-05-06 21:47 | 53.45766 | 13.56180 | 38898 ft | 421 kts | 183° |
| 2026-05-06 21:48 | 53.39917 | 13.56298 | 38905 ft | 419 kts | 183° |
| 2026-05-06 21:48 | 53.34090 | 13.56416 | 38900 ft | 419 kts | 183° |
| 2026-05-06 21:49 | 53.28246 | 13.56534 | 38898 ft | 419 kts | 183° |
| 2026-05-06 21:49 | 53.22449 | 13.56651 | 38894 ft | 419 kts | 183° |
| 2026-05-06 21:50 | 53.16618 | 13.56768 | 38894 ft | 419 kts | 182° |
| 2026-05-06 21:50 | 53.10787 | 13.56885 | 38892 ft | 419 kts | 182° |
| 2026-05-06 21:51 | 53.04955 | 13.57002 | 38887 ft | 419 kts | 182° |
| 2026-05-06 21:51 | 52.99119 | 13.57119 | 38889 ft | 419 kts | 182° |
| 2026-05-06 21:52 | 52.93292 | 13.57235 | 38882 ft | 419 kts | 182° |
| 2026-05-06 21:52 | 52.87456 | 13.57351 | 38879 ft | 420 kts | 182° |
| 2026-05-06 21:53 | 52.81616 | 13.57467 | 38888 ft | 420 kts | 182° |
| 2026-05-06 21:53 | 52.75775 | 13.57582 | 38876 ft | 420 kts | 182° |
| 2026-05-06 21:54 | 52.69931 | 13.57698 | 38879 ft | 420 kts | 182° |
| 2026-05-06 21:54 | 52.64090 | 13.57812 | 38869 ft | 420 kts | 182° |
| 2026-05-06 21:55 | 52.58252 | 13.57927 | 38869 ft | 420 kts | 182° |
| 2026-05-06 21:55 | 52.52447 | 13.58041 | 38841 ft | 420 kts | 183° |
| 2026-05-06 21:56 | 52.46611 | 13.58155 | 38851 ft | 419 kts | 183° |
| 2026-05-06 21:56 | 52.40773 | 13.58268 | 38857 ft | 420 kts | 183° |
| 2026-05-06 21:57 | 52.34929 | 13.58381 | 38857 ft | 420 kts | 183° |
| 2026-05-06 21:57 | 52.29082 | 13.58494 | 38856 ft | 420 kts | 183° |
| 2026-05-06 21:58 | 52.23237 | 13.58607 | 38856 ft | 420 kts | 183° |
| 2026-05-06 21:58 | 52.17391 | 13.58721 | 38852 ft | 418 kts | 183° |
| 2026-05-06 21:59 | 52.11615 | 13.58833 | 38853 ft | 417 kts | 183° |
| 2026-05-06 21:59 | 52.05819 | 13.58943 | 38847 ft | 417 kts | 183° |
| 2026-05-06 22:00 | 52.00016 | 13.59053 | 38847 ft | 417 kts | 183° |
| 2026-05-06 22:00 | 51.94223 | 13.59163 | 38838 ft | 414 kts | 183° |
| 2026-05-06 22:01 | 51.88477 | 13.59275 | 38835 ft | 411 kts | 183° |
| 2026-05-06 22:01 | 51.82752 | 13.59418 | 38833 ft | 411 kts | 182° |
| 2026-05-06 22:02 | 51.77026 | 13.59603 | 38829 ft | 411 kts | 182° |
| 2026-05-06 22:02 | 51.71298 | 13.59792 | 38824 ft | 411 kts | 182° |
| 2026-05-06 22:03 | 51.65594 | 13.59977 | 38827 ft | 409 kts | 182° |
| 2026-05-06 22:03 | 51.59947 | 13.60155 | 38827 ft | 408 kts | 182° |
| 2026-05-06 22:04 | 51.54267 | 13.60333 | 38812 ft | 408 kts | 182° |
| 2026-05-06 22:04 | 51.48589 | 13.60511 | 38806 ft | 408 kts | 182° |
| 2026-05-06 22:05 | 51.42911 | 13.60688 | 38815 ft | 408 kts | 182° |
| 2026-05-06 22:05 | 51.37219 | 13.60865 | 38809 ft | 409 kts | 182° |
| 2026-05-06 22:06 | 51.31534 | 13.61042 | 38820 ft | 409 kts | 182° |
| 2026-05-06 22:06 | 51.25846 | 13.61218 | 38822 ft | 409 kts | 182° |
| 2026-05-06 22:07 | 51.20185 | 13.61393 | 38826 ft | 410 kts | 181° |
| 2026-05-06 22:07 | 51.14480 | 13.61569 | 38828 ft | 410 kts | 181° |
| 2026-05-06 22:08 | 51.08765 | 13.61746 | 38827 ft | 410 kts | 181° |
| 2026-05-06 22:08 | 51.03055 | 13.61922 | 38824 ft | 410 kts | 181° |
| 2026-05-06 22:09 | 50.97337 | 13.62097 | 38821 ft | 411 kts | 181° |
| 2026-05-06 22:09 | 50.91615 | 13.62271 | 38818 ft | 412 kts | 181° |
| 2026-05-06 22:10 | 50.85882 | 13.62447 | 38815 ft | 412 kts | 181° |
| 2026-05-06 22:10 | 50.80181 | 13.62620 | 38809 ft | 412 kts | 181° |
| 2026-05-06 22:11 | 50.74448 | 13.62801 | 38805 ft | 414 kts | 180° |
| 2026-05-06 22:11 | 50.68720 | 13.64266 | 38808 ft | 421 kts | 169° |
| 2026-05-06 22:12 | 50.63062 | 13.66775 | 38808 ft | 423 kts | 167° |
| 2026-05-06 22:12 | 50.57433 | 13.69477 | 38809 ft | 423 kts | 166° |
| 2026-05-06 22:13 | 50.51802 | 13.72175 | 38801 ft | 423 kts | 166° |
| 2026-05-06 22:13 | 50.46132 | 13.74848 | 38810 ft | 428 kts | 167° |
| 2026-05-06 22:14 | 50.40418 | 13.77521 | 38809 ft | 429 kts | 167° |
| 2026-05-06 22:14 | 50.34735 | 13.80171 | 38809 ft | 429 kts | 167° |
| 2026-05-06 22:15 | 50.29015 | 13.82832 | 38809 ft | 429 kts | 167° |
| 2026-05-06 22:15 | 50.23295 | 13.85487 | 38810 ft | 429 kts | 167° |
| 2026-05-06 22:16 | 50.17577 | 13.88135 | 38797 ft | 428 kts | 167° |
| 2026-05-06 22:16 | 50.11886 | 13.90765 | 38818 ft | 425 kts | 167° |
| 2026-05-06 22:17 | 50.06215 | 13.93377 | 38815 ft | 425 kts | 167° |
| 2026-05-06 22:17 | 50.00548 | 13.95981 | 38812 ft | 426 kts | 168° |
| 2026-05-06 22:18 | 49.94843 | 13.98594 | 38816 ft | 428 kts | 167° |
| 2026-05-06 22:18 | 49.89119 | 14.01211 | 38821 ft | 429 kts | 167° |
| 2026-05-06 22:19 | 49.83399 | 14.03822 | 38820 ft | 429 kts | 167° |
| 2026-05-06 22:19 | 49.77677 | 14.06427 | 38820 ft | 428 kts | 168° |
| 2026-05-06 22:20 | 49.72012 | 14.09000 | 38819 ft | 425 kts | 168° |
| 2026-05-06 22:20 | 49.66319 | 14.11577 | 38819 ft | 428 kts | 168° |
| 2026-05-06 22:21 | 49.60515 | 14.13763 | 38822 ft | 430 kts | 173° |
| 2026-05-06 22:21 | 49.54650 | 14.15517 | 38821 ft | 429 kts | 174° |
| 2026-05-06 22:22 | 49.49815 | 14.16933 | 38821 ft | 420 kts | 174° |
| 2026-05-06 22:22 | 49.44113 | 14.18644 | 38822 ft | 416 kts | 174° |
| 2026-05-06 22:23 | 49.38437 | 14.20372 | 38824 ft | 416 kts | 174° |
| 2026-05-06 22:23 | 49.32759 | 14.22107 | 38824 ft | 416 kts | 174° |
| 2026-05-06 22:24 | 49.27094 | 14.23838 | 38823 ft | 412 kts | 173° |
| 2026-05-06 22:24 | 49.21540 | 14.25533 | 38822 ft | 408 kts | 174° |
| 2026-05-06 22:25 | 49.15971 | 14.27221 | 38834 ft | 408 kts | 174° |
| 2026-05-06 22:25 | 49.10405 | 14.28906 | 38821 ft | 408 kts | 174° |
| 2026-05-06 22:26 | 49.04841 | 14.30587 | 38836 ft | 406 kts | 174° |
| 2026-05-06 22:26 | 48.99302 | 14.31460 | 38827 ft | 396 kts | 186° |
| 2026-05-06 22:27 | 48.93957 | 14.29989 | 38840 ft | 389 kts | 202° |
| 2026-05-06 22:27 | 48.89274 | 14.25992 | 38847 ft | 387 kts | 218° |
| 2026-05-06 22:28 | 48.85214 | 14.20683 | 38846 ft | 388 kts | 221° |
| 2026-05-06 22:28 | 48.81220 | 14.15112 | 38861 ft | 391 kts | 221° |
| 2026-05-06 22:29 | 48.77204 | 14.09545 | 38865 ft | 391 kts | 221° |
| 2026-05-06 22:29 | 48.73158 | 14.04019 | 38876 ft | 392 kts | 221° |
| 2026-05-06 22:30 | 48.69076 | 13.98512 | 38879 ft | 392 kts | 219° |
| 2026-05-06 22:30 | 48.64820 | 13.93359 | 38887 ft | 392 kts | 217° |
| 2026-05-06 22:31 | 48.60449 | 13.88382 | 38886 ft | 393 kts | 216° |
| 2026-05-06 22:31 | 48.56080 | 13.83412 | 38893 ft | 393 kts | 216° |
| 2026-05-06 22:32 | 48.51747 | 13.78446 | 38902 ft | 393 kts | 217° |
| 2026-05-06 22:32 | 48.47391 | 13.73441 | 38896 ft | 393 kts | 217° |
| 2026-05-06 22:33 | 48.43039 | 13.68446 | 38912 ft | 394 kts | 217° |
| 2026-05-06 22:33 | 48.38679 | 13.63455 | 38914 ft | 394 kts | 217° |
| 2026-05-06 22:34 | 48.34314 | 13.58471 | 38919 ft | 394 kts | 217° |
| 2026-05-06 22:34 | 48.29950 | 13.53501 | 38918 ft | 394 kts | 217° |
| 2026-05-06 22:35 | 48.25580 | 13.48533 | 38920 ft | 395 kts | 217° |
| 2026-05-06 22:35 | 48.21209 | 13.43512 | 38927 ft | 396 kts | 218° |
| 2026-05-06 22:36 | 48.16966 | 13.38249 | 38927 ft | 396 kts | 219° |
| 2026-05-06 22:36 | 48.12788 | 13.32940 | 38954 ft | 396 kts | 219° |
| 2026-05-06 22:37 | 48.08562 | 13.27600 | 38934 ft | 397 kts | 219° |
| 2026-05-06 22:37 | 48.04319 | 13.22285 | 38942 ft | 398 kts | 219° |
| 2026-05-06 22:38 | 48.00081 | 13.17001 | 38938 ft | 398 kts | 219° |
| 2026-05-06 22:38 | 47.95817 | 13.11697 | 38943 ft | 398 kts | 218° |
| 2026-05-06 22:39 | 47.91568 | 13.06423 | 38940 ft | 397 kts | 218° |
| 2026-05-06 22:39 | 47.87177 | 13.01536 | 38949 ft | 397 kts | 206° |
| 2026-05-06 22:40 | 47.81996 | 12.98624 | 38948 ft | 400 kts | 197° |
| 2026-05-06 22:40 | 47.76623 | 12.96464 | 38938 ft | 400 kts | 196° |
| 2026-05-06 22:41 | 47.71769 | 12.92737 | 38955 ft | 398 kts | 225° |
| 2026-05-06 22:41 | 47.69955 | 12.89620 | 38786 ft | 400 kts | 230° |
| 2026-05-06 22:41 | 47.68231 | 12.86385 | 38217 ft | 400 kts | 230° |
| 2026-05-06 22:42 | 47.66505 | 12.83155 | 37376 ft | 399 kts | 230° |
| 2026-05-06 22:42 | 47.64761 | 12.79946 | 36451 ft | 399 kts | 229° |
| 2026-05-06 22:42 | 47.63007 | 12.76760 | 35629 ft | 396 kts | 229° |
| 2026-05-06 22:42 | 47.61273 | 12.73635 | 35124 ft | 386 kts | 229° |
| 2026-05-06 22:43 | 47.59589 | 12.70617 | 34960 ft | 375 kts | 229° |
| 2026-05-06 22:43 | 47.57929 | 12.67647 | 34848 ft | 374 kts | 229° |
| 2026-05-06 22:43 | 47.56269 | 12.64684 | 34362 ft | 372 kts | 229° |
| 2026-05-06 22:43 | 47.54641 | 12.61786 | 33567 ft | 371 kts | 229° |
| 2026-05-06 22:44 | 47.52981 | 12.58836 | 32502 ft | 374 kts | 229° |
| 2026-05-06 22:44 | 47.51313 | 12.55875 | 31441 ft | 374 kts | 228° |
| 2026-05-06 22:44 | 47.49649 | 12.52926 | 30465 ft | 373 kts | 228° |
| 2026-05-06 22:44 | 47.47988 | 12.49983 | 29403 ft | 372 kts | 228° |
| 2026-05-06 22:45 | 47.46332 | 12.47054 | 28288 ft | 370 kts | 228° |
| 2026-05-06 22:45 | 47.44682 | 12.44135 | 27212 ft | 368 kts | 228° |
| 2026-05-06 22:45 | 47.43042 | 12.41237 | 26181 ft | 367 kts | 228° |
| 2026-05-06 22:45 | 47.41375 | 12.38300 | 25186 ft | 381 kts | 228° |
| 2026-05-06 22:46 | 47.39784 | 12.35204 | 24208 ft | 379 kts | 238° |
| 2026-05-06 22:46 | 47.38939 | 12.31495 | 23139 ft | 386 kts | 257° |
| 2026-05-06 22:46 | 47.39008 | 12.27507 | 21948 ft | 396 kts | 275° |
| 2026-05-06 22:46 | 47.39660 | 12.23548 | 20820 ft | 396 kts | 278° |
| 2026-05-06 22:47 | 47.40311 | 12.19612 | 19710 ft | 392 kts | 277° |
| 2026-05-06 22:47 | 47.40856 | 12.15723 | 18666 ft | 387 kts | 275° |
| 2026-05-06 22:47 | 47.41323 | 12.11853 | 17541 ft | 383 kts | 275° |
| 2026-05-06 22:47 | 47.41739 | 12.07992 | 16394 ft | 378 kts | 274° |
| 2026-05-06 22:48 | 47.42127 | 12.04160 | 15277 ft | 375 kts | 274° |
| 2026-05-06 22:48 | 47.42491 | 12.00382 | 14194 ft | 370 kts | 274° |
| 2026-05-06 22:48 | 47.42782 | 11.96642 | 13063 ft | 362 kts | 267° |
| 2026-05-06 22:48 | 47.42290 | 11.93090 | 11926 ft | 351 kts | 244° |
| 2026-05-06 22:49 | 47.40899 | 11.90200 | 10824 ft | 344 kts | 221° |
| 2026-05-06 22:49 | 47.38872 | 11.88416 | 9869 ft | 338 kts | 202° |
| 2026-05-06 22:49 | 47.36724 | 11.87177 | 9247 ft | 323 kts | 201° |
| 2026-05-06 22:49 | 47.34728 | 11.85922 | 8969 ft | 299 kts | 202° |
| 2026-05-06 22:50 | 47.33029 | 11.84445 | 8949 ft | 271 kts | 226° |
| 2026-05-06 22:50 | 47.32123 | 11.82236 | 9127 ft | 240 kts | 249° |
| 2026-05-06 22:50 | 47.31689 | 11.79903 | 8771 ft | 233 kts | 256° |
| 2026-05-06 22:50 | 47.31424 | 11.77582 | 8371 ft | 227 kts | 259° |
| 2026-05-06 22:51 | 47.31217 | 11.75318 | 7958 ft | 217 kts | 261° |
| 2026-05-06 22:51 | 47.31042 | 11.73187 | 7581 ft | 202 kts | 260° |
| 2026-05-06 22:51 | 47.30871 | 11.71230 | 7217 ft | 189 kts | 259° |
| 2026-05-06 22:51 | 47.30634 | 11.69396 | 6943 ft | 172 kts | 255° |
| 2026-05-06 22:52 | 47.30377 | 11.67749 | 6682 ft | 158 kts | 252° |
| 2026-05-06 22:52 | 47.30110 | 11.66230 | 6407 ft | 149 kts | 253° |
| 2026-05-06 22:52 | 47.29858 | 11.64774 | 6141 ft | 146 kts | 255° |
| 2026-05-06 22:52 | 47.29601 | 11.63324 | 5909 ft | 146 kts | 253° |
| 2026-05-06 22:53 | 47.29325 | 11.61879 | 5596 ft | 146 kts | 253° |
| 2026-05-06 22:53 | 47.29037 | 11.60442 | 5274 ft | 146 kts | 253° |
| 2026-05-06 22:53 | 47.28771 | 11.59011 | 5011 ft | 145 kts | 257° |
| 2026-05-06 22:53 | 47.28553 | 11.57569 | 4732 ft | 144 kts | 259° |
| 2026-05-06 22:54 | 47.28372 | 11.56119 | 4423 ft | 142 kts | 261° |
| 2026-05-06 22:54 | 47.28206 | 11.54688 | 4250 ft | 142 kts | 261° |
| 2026-05-06 22:54 | 47.28032 | 11.53260 | 4114 ft | 142 kts | 261° |
| 2026-05-06 22:54 | 47.27865 | 11.51828 | 3986 ft | 142 kts | 262° |
| 2026-05-06 22:55 | 47.27708 | 11.50384 | 3847 ft | 143 kts | 262° |
| 2026-05-06 22:55 | 47.27562 | 11.48938 | 3671 ft | 145 kts | 262° |
| 2026-05-06 22:55 | 47.27395 | 11.47479 | 3388 ft | 143 kts | 261° |
| 2026-05-06 22:55 | 47.27226 | 11.46033 | 3091 ft | 142 kts | 262° |
| 2026-05-06 22:56 | 47.27076 | 11.44620 | 2934 ft | 141 kts | 261° |
| 2026-05-06 22:56 | 47.26933 | 11.43187 | 2800 ft | 141 kts | 263° |
| 2026-05-06 22:56 | 47.26791 | 11.41760 | 2703 ft | 141 kts | 263° |
| 2026-05-06 22:56 | 47.26643 | 11.40346 | 2572 ft | 140 kts | 261° |
| 2026-05-06 22:57 | 47.26491 | 11.38937 | 2415 ft | 138 kts | 265° |
| 2026-05-06 22:57 | 47.26352 | 11.37533 | 2193 ft | 138 kts | 264° |
| 2026-05-06 22:57 | 47.26205 | 11.36144 | 1982 ft | 136 kts | 264° |
| 2026-05-06 22:57 | 47.26066 | 11.34814 | 1902 ft | 118 kts | 261° |
| 2026-05-06 22:58 | 47.25974 | 11.33971 | 1909 ft | 58 kts | 262° |
| 2026-05-06 22:58 | 47.25918 | 11.33687 | 1902 ft | 0 kts | 185° |
| 2026-05-06 22:58 | 47.25865 | 11.33774 | 1898 ft | 25 kts | 127° |
| 2026-05-06 22:58 | 47.25773 | 11.33996 | 1905 ft | 26 kts | 99° |
| 2026-05-06 22:59 | 47.25792 | 11.34257 | 1907 ft | 26 kts | 81° |
| 2026-05-06 22:59 | 47.25822 | 11.34528 | 1902 ft | 28 kts | 80° |
| 2026-05-06 22:59 | 47.25852 | 11.34805 | 1906 ft | 23 kts | 79° |
| 2026-05-06 22:59 | 47.25839 | 11.34860 | 1905 ft | 3 kts | 161° |
| 2026-05-06 23:00 | 47.25821 | 11.34867 | 1896 ft | 3 kts | 169° |
| 2026-05-06 23:00 | 47.25805 | 11.34871 | 1897 ft | 0 kts | 169° |